createdAt,value
2018-04-16T00:00:59.717Z,71.58
2018-04-16T00:03:28.235Z,72.29
2018-04-16T00:05:54.218Z,72.64
2018-04-16T00:08:23.392Z,72.36
2018-04-16T00:10:49.347Z,72.53
2018-04-16T00:13:19.112Z,72.75
2018-04-16T00:15:45.039Z,73.58
2018-04-16T00:18:10.903Z,73.87
2018-04-16T00:20:36.898Z,73.77
2018-04-16T00:23:02.823Z,73.30
2018-04-16T00:25:29.347Z,72.74
2018-04-16T00:27:55.313Z,72.74
2018-04-16T00:30:24.427Z,72.67
2018-04-16T00:32:56.439Z,72.60
2018-04-16T00:35:28.595Z,72.59
2018-04-16T00:38:00.576Z,72.60
2018-04-16T00:40:32.446Z,73.27
2018-04-16T00:43:04.552Z,73.62
2018-04-16T00:45:36.537Z,73.87
2018-04-16T00:48:08.632Z,74.36
2018-04-16T00:50:40.890Z,74.65
2018-04-16T00:53:13.014Z,74.93
2018-04-16T00:55:44.911Z,75.63
2018-04-16T00:58:17.002Z,76.38
2018-04-16T01:00:48.992Z,77.30
2018-04-16T01:03:21.091Z,77.67
2018-04-16T01:05:53.030Z,79.04
2018-04-16T01:11:24.559Z,81.17
2018-04-16T01:13:56.571Z,81.90
2018-04-16T01:16:28.594Z,82.75
2018-04-16T01:19:00.649Z,84.13
2018-04-16T01:21:32.819Z,84.09
2018-04-16T01:24:04.940Z,84.37
2018-04-16T01:26:36.927Z,85.09
2018-04-16T01:29:10.214Z,83.42
2018-04-16T01:31:42.182Z,83.11
2018-04-16T01:37:14.298Z,84.15
2018-04-16T01:39:46.298Z,84.43
2018-04-16T01:42:18.193Z,83.93
2018-04-16T01:44:50.174Z,85.33
2018-04-16T01:47:22.288Z,85.76
2018-04-16T01:49:54.214Z,85.15
2018-04-16T01:52:29.359Z,85.44
2018-04-16T01:55:01.505Z,84.32
2018-04-16T01:57:33.443Z,84.61
2018-04-16T02:00:05.535Z,84.48
2018-04-16T02:02:37.501Z,85.15
2018-04-16T02:05:09.649Z,84.16
2018-04-16T02:07:41.707Z,84.04
2018-04-16T02:13:13.675Z,84.21
2018-04-16T02:18:43.443Z,83.23
2018-04-16T02:21:15.486Z,83.14
2018-04-16T02:23:47.472Z,83.79
2018-04-16T02:26:19.559Z,83.79
2018-04-16T02:28:51.637Z,83.37
2018-04-16T02:31:23.721Z,84.09
2018-04-16T02:33:56.018Z,84.29
2018-04-16T02:36:28.056Z,84.65
2018-04-16T02:38:59.941Z,85.55
2018-04-16T02:41:31.934Z,85.63
2018-04-16T02:44:04.013Z,85.93
2018-04-16T02:46:36.132Z,86.26
2018-04-16T02:52:06.969Z,85.82
2018-04-16T02:54:38.992Z,85.33
2018-04-16T02:57:10.950Z,85.87
2018-04-16T02:59:43.100Z,86.12
2018-04-16T03:02:14.967Z,85.54
2018-04-16T03:04:48.199Z,85.75
2018-04-16T03:07:20.895Z,86.14
2018-04-16T03:09:52.887Z,86.54
2018-04-16T03:12:24.912Z,86.38
2018-04-16T03:14:56.817Z,86.21
2018-04-16T03:17:28.797Z,86.45
2018-04-16T03:20:00.916Z,86.38
2018-04-16T03:22:32.888Z,86.44
2018-04-16T03:25:04.796Z,86.14
2018-04-16T03:27:36.852Z,86.19
2018-04-16T03:30:08.960Z,85.73
2018-04-16T03:32:40.956Z,85.18
2018-04-16T03:35:13.070Z,85.14
2018-04-16T03:37:45.184Z,85.11
2018-04-16T03:40:17.215Z,85.17
2018-04-16T03:42:49.113Z,85.12
2018-04-16T03:45:21.092Z,84.95
2018-04-16T03:47:53.050Z,84.91
2018-04-16T03:50:25.072Z,85.18
2018-04-16T03:52:56.997Z,84.21
2018-04-16T03:55:27.660Z,83.71
2018-04-16T03:57:53.611Z,83.21
2018-04-16T04:00:19.548Z,82.77
2018-04-16T04:02:45.423Z,83.31
2018-04-16T04:05:11.323Z,83.44
2018-04-16T04:07:37.225Z,83.88
2018-04-16T04:10:03.117Z,84.13
2018-04-16T04:12:29.037Z,84.42
2018-04-16T04:14:55.028Z,84.41
2018-04-16T04:17:20.964Z,84.84
2018-04-16T04:19:46.861Z,84.77
2018-04-16T04:22:12.750Z,84.76
2018-04-16T04:24:50.892Z,84.95
2018-04-16T04:27:29.175Z,84.85
2018-04-16T04:30:07.288Z,84.83
2018-04-16T04:32:33.176Z,84.89
2018-04-16T04:34:59.094Z,84.62
2018-04-16T04:37:24.974Z,84.78
2018-04-16T04:39:50.890Z,84.77
2018-04-16T04:42:16.779Z,84.62
2018-04-16T04:44:42.695Z,84.90
2018-04-16T04:47:08.592Z,84.49
2018-04-16T04:49:34.474Z,84.86
2018-04-16T04:52:00.384Z,84.79
2018-04-16T04:54:26.338Z,84.96
2018-04-16T04:56:52.219Z,84.80
2018-04-16T04:59:18.135Z,85.26
2018-04-16T05:01:44.067Z,85.09
2018-04-16T05:04:09.972Z,84.82
2018-04-16T05:06:35.942Z,84.70
2018-04-16T05:09:01.834Z,85.39
2018-04-16T05:11:27.790Z,85.54
2018-04-16T05:13:53.703Z,85.24
2018-04-16T05:16:19.645Z,83.56
2018-04-16T05:18:45.543Z,83.78
2018-04-16T05:21:11.443Z,83.63
2018-04-16T05:23:37.461Z,83.73
2018-04-16T05:26:03.299Z,83.75
2018-04-16T05:28:29.200Z,83.63
2018-04-16T05:30:55.095Z,82.98
2018-04-16T05:33:21.056Z,82.93
2018-04-16T05:35:46.960Z,81.68
2018-04-16T05:38:12.930Z,81.71
2018-04-16T05:40:38.872Z,81.64
2018-04-16T05:43:04.779Z,81.51
2018-04-16T05:45:30.703Z,81.75
2018-04-16T05:47:56.603Z,81.43
2018-04-16T05:50:22.494Z,81.91
2018-04-16T05:52:48.346Z,82.34
2018-04-16T05:55:14.271Z,82.87
2018-04-16T05:57:40.162Z,83.30
2018-04-16T06:00:06.044Z,83.35
2018-04-16T06:02:31.934Z,83.57
2018-04-16T06:04:57.790Z,83.72
2018-04-16T06:07:23.697Z,84.10
2018-04-16T06:09:49.636Z,84.13
2018-04-16T06:12:15.548Z,85.04
2018-04-16T06:14:42.713Z,84.60
2018-04-16T06:17:08.694Z,84.54
2018-04-16T06:19:34.600Z,85.41
2018-04-16T06:22:01.656Z,85.50
2018-04-16T06:24:27.560Z,84.77
2018-04-16T06:26:56.763Z,84.06
2018-04-16T06:29:22.678Z,84.97
2018-04-16T06:31:51.610Z,85.07
2018-04-16T06:34:17.519Z,85.20
2018-04-16T06:36:46.603Z,84.31
2018-04-16T06:39:12.475Z,83.69
2018-04-16T06:41:38.396Z,83.00
2018-04-16T06:44:04.298Z,83.88
2018-04-16T06:46:30.235Z,83.78
2018-04-16T06:48:57.562Z,83.84
2018-04-16T06:51:23.479Z,81.20
2018-04-16T06:53:52.594Z,79.54
2018-04-16T06:56:18.534Z,77.37
2018-04-16T06:58:47.756Z,76.41
2018-04-16T07:01:13.675Z,76.12
2018-04-16T07:03:42.682Z,77.39
2018-04-16T07:06:08.625Z,76.66
2018-04-16T07:08:37.615Z,76.86
2018-04-16T07:11:03.522Z,75.94
2018-04-16T07:13:31.371Z,75.28
2018-04-16T07:15:57.268Z,74.07
2018-04-16T07:18:23.200Z,73.08
2018-04-16T07:20:49.159Z,73.02
2018-04-16T07:23:15.067Z,71.63
2018-04-16T07:25:44.588Z,68.84
2018-04-16T07:28:10.562Z,69.47
2018-04-16T07:30:37.435Z,68.90
2018-04-16T07:33:03.382Z,68.46
2018-04-16T07:35:32.430Z,68.25
2018-04-16T07:37:58.297Z,63.42
2018-04-16T07:40:27.366Z,63.27
2018-04-16T07:42:53.896Z,59.91
2018-04-16T07:45:23.127Z,61.49
2018-04-16T07:47:49.081Z,57.27
2018-04-16T07:50:18.027Z,55.00
2018-04-16T07:52:43.948Z,51.28
2018-04-16T07:55:09.876Z,51.92
2018-04-16T07:57:35.794Z,50.46
2018-04-16T08:00:01.711Z,48.70
2018-04-16T08:02:28.160Z,48.94
2018-04-16T08:04:54.064Z,51.07
2018-04-16T08:07:23.003Z,50.87
2018-04-16T08:09:48.862Z,50.26
2018-04-16T08:12:17.915Z,50.50
2018-04-16T08:14:45.663Z,49.76
2018-04-16T08:17:11.935Z,49.56
2018-04-16T08:19:37.845Z,50.23
2018-04-16T08:22:06.656Z,52.97
2018-04-16T08:24:32.643Z,56.03
2018-04-16T08:27:02.108Z,53.01
2018-04-16T08:32:00.013Z,50.63
2018-04-16T08:34:25.932Z,48.15
2018-04-16T08:36:51.867Z,47.23
2018-04-16T08:39:17.755Z,44.70
2018-04-16T08:41:43.660Z,43.67
2018-04-16T08:44:09.579Z,45.69
2018-04-16T08:46:35.455Z,43.50
2018-04-16T08:49:04.419Z,42.81
2018-04-16T08:51:30.323Z,40.80
2018-04-16T08:53:57.237Z,42.00
2018-04-16T08:56:23.165Z,43.29
2018-04-16T08:58:52.048Z,42.96
2018-04-16T09:01:17.940Z,41.52
2018-04-16T09:03:46.883Z,38.58
2018-04-16T09:06:12.793Z,40.39
2018-04-16T09:08:38.656Z,40.23
2018-04-16T09:11:04.603Z,40.62
2018-04-16T09:13:30.530Z,43.48
2018-04-16T09:15:59.619Z,43.48
2018-04-16T09:18:25.531Z,42.26
2018-04-16T09:20:55.078Z,42.56
2018-04-16T09:23:20.975Z,41.31
2018-04-16T09:25:47.871Z,38.23
2018-04-16T09:28:13.747Z,37.89
2018-04-16T09:30:42.511Z,39.94
2018-04-16T09:33:08.484Z,40.35
2018-04-16T09:35:37.307Z,39.15
2018-04-16T09:38:03.230Z,41.53
2018-04-16T09:40:32.875Z,37.26
2018-04-16T09:42:58.802Z,37.70
2018-04-16T09:45:24.683Z,37.42
2018-04-16T09:47:50.591Z,40.45
2018-04-16T09:50:16.523Z,40.86
2018-04-16T09:52:45.492Z,40.69
2018-04-16T09:55:11.411Z,37.48
2018-04-16T09:57:38.657Z,37.76
2018-04-16T10:00:04.575Z,39.64
2018-04-16T10:02:33.792Z,42.25
2018-04-16T10:04:59.697Z,43.84
2018-04-16T10:07:27.943Z,40.72
2018-04-16T10:09:53.858Z,38.71
2018-04-16T10:12:23.492Z,37.99
2018-04-16T10:14:49.439Z,35.60
2018-04-16T10:17:17.264Z,34.59
2018-04-16T10:19:43.179Z,36.14
2018-04-16T10:22:09.112Z,36.95
2018-04-16T10:24:35.103Z,36.63
2018-04-16T10:27:01.006Z,37.68
2018-04-16T10:29:31.782Z,39.91
2018-04-16T10:31:57.703Z,37.60
2018-04-16T10:34:23.650Z,39.37
2018-04-16T10:36:49.607Z,38.76
2018-04-16T10:39:18.281Z,37.29
2018-04-16T10:41:44.170Z,32.33
2018-04-16T10:44:12.968Z,35.93
2018-04-16T10:46:38.849Z,38.17
2018-04-16T10:49:07.544Z,37.17
2018-04-16T10:51:33.437Z,36.01
2018-04-16T10:54:02.132Z,32.95
2018-04-16T10:56:28.024Z,34.41
2018-04-16T10:58:53.940Z,31.65
2018-04-16T11:01:19.798Z,31.23
2018-04-16T11:03:45.735Z,32.54
2018-04-16T11:06:14.871Z,30.22
2018-04-16T11:08:40.740Z,29.91
2018-04-16T11:11:10.603Z,28.05
2018-04-16T11:13:36.524Z,30.04
2018-04-16T11:16:04.179Z,33.47
2018-04-16T11:18:30.088Z,32.57
2018-04-16T11:20:59.987Z,32.63
2018-04-16T11:23:25.896Z,34.09
2018-04-16T11:25:53.343Z,31.13
2018-04-16T11:28:19.278Z,32.23
2018-04-16T11:30:49.023Z,30.52
2018-04-16T11:33:14.943Z,29.08
2018-04-16T11:35:40.884Z,28.59
2018-04-16T11:38:06.754Z,30.17
2018-04-16T11:40:32.665Z,28.17
2018-04-16T11:42:59.715Z,27.45
2018-04-16T11:45:25.661Z,27.38
2018-04-16T11:47:55.332Z,30.03
2018-04-16T11:50:21.266Z,30.81
2018-04-16T11:52:48.962Z,32.26
2018-04-16T11:55:14.900Z,30.78
2018-04-16T11:57:44.859Z,31.25
2018-04-16T12:00:10.772Z,30.45
2018-04-16T12:02:38.518Z,29.30
2018-04-16T12:05:04.379Z,28.91
2018-04-16T12:07:33.943Z,29.90
2018-04-16T12:09:59.854Z,30.74
2018-04-16T12:12:25.739Z,31.79
2018-04-16T12:14:51.651Z,33.92
2018-04-16T12:17:17.548Z,34.91
2018-04-16T12:19:45.379Z,35.14
2018-04-16T12:22:11.283Z,35.19
2018-04-16T12:24:40.712Z,33.77
2018-04-16T12:27:06.586Z,32.88
2018-04-16T12:29:34.338Z,33.74
2018-04-16T12:32:00.233Z,35.09
2018-04-16T12:34:29.958Z,36.26
2018-04-16T12:36:55.879Z,35.82
2018-04-16T12:39:25.186Z,35.81
2018-04-16T12:41:51.098Z,35.08
2018-04-16T12:44:18.923Z,34.98
2018-04-16T12:46:44.807Z,35.60
2018-04-16T12:49:10.739Z,35.84
2018-04-16T12:51:36.607Z,36.57
2018-04-16T12:54:02.527Z,35.73
2018-04-16T12:56:29.970Z,35.45
2018-04-16T12:58:55.856Z,36.91
2018-04-16T13:01:24.801Z,35.46
2018-04-16T13:03:50.766Z,34.95
2018-04-16T13:06:20.623Z,36.06
2018-04-16T13:08:46.586Z,36.39
2018-04-16T13:11:15.720Z,36.47
2018-04-16T13:13:41.627Z,36.66
2018-04-16T13:16:09.138Z,36.92
2018-04-16T13:18:35.229Z,36.20
2018-04-16T13:21:04.410Z,34.56
2018-04-16T13:23:30.307Z,34.19
2018-04-16T13:25:56.247Z,34.58
2018-04-16T13:28:22.186Z,35.63
2018-04-16T13:30:48.060Z,35.73
2018-04-16T13:33:17.516Z,32.06
2018-04-16T13:35:43.396Z,31.32
2018-04-16T13:38:10.424Z,32.20
2018-04-16T13:40:36.287Z,32.34
2018-04-16T13:43:05.895Z,29.32
2018-04-16T13:45:31.777Z,28.24
2018-04-16T13:47:59.403Z,27.27
2018-04-16T13:50:25.304Z,29.63
2018-04-16T13:52:54.349Z,28.69
2018-04-16T13:55:20.292Z,28.71
2018-04-16T13:57:49.583Z,27.98
2018-04-16T14:00:15.467Z,28.14
2018-04-16T14:02:41.399Z,27.34
2018-04-16T14:05:07.299Z,26.66
2018-04-16T14:07:33.209Z,26.49
2018-04-16T14:10:00.591Z,26.58
2018-04-16T14:12:26.493Z,27.01
2018-04-16T14:14:55.684Z,27.95
2018-04-16T14:17:21.587Z,28.45
2018-04-16T14:19:51.033Z,27.21
2018-04-16T14:22:16.938Z,24.97
2018-04-16T14:24:44.790Z,25.95
2018-04-16T14:27:11.123Z,26.82
2018-04-16T14:29:39.993Z,30.37
2018-04-16T14:32:05.899Z,30.09
2018-04-16T14:34:35.196Z,28.84
2018-04-16T14:37:01.092Z,29.89
2018-04-16T14:39:27.047Z,29.15
2018-04-16T14:41:53.017Z,29.25
2018-04-16T14:44:18.872Z,28.72
2018-04-16T14:46:46.164Z,28.51
2018-04-16T14:49:12.026Z,27.51
2018-04-16T14:51:41.474Z,28.53
2018-04-16T14:54:07.382Z,29.32
2018-04-16T14:56:36.889Z,30.39
2018-04-16T14:59:02.831Z,31.77
2018-04-16T15:01:31.843Z,33.48
2018-04-16T15:03:57.710Z,34.14
2018-04-16T15:06:24.704Z,34.04
2018-04-16T15:08:50.621Z,33.75
2018-04-16T15:11:19.448Z,33.98
2018-04-16T15:13:45.357Z,34.38
2018-04-16T15:16:11.283Z,35.72
2018-04-16T15:18:37.232Z,34.97
2018-04-16T15:21:03.158Z,35.68
2018-04-16T15:23:32.158Z,35.52
2018-04-16T15:25:58.091Z,35.18
2018-04-16T15:28:27.595Z,34.70
2018-04-16T15:30:53.509Z,35.43
2018-04-16T15:33:21.303Z,36.67
2018-04-16T15:35:47.179Z,35.60
2018-04-16T15:38:16.834Z,36.45
2018-04-16T15:40:42.743Z,36.33
2018-04-16T15:43:10.446Z,36.19
2018-04-16T15:45:36.349Z,37.57
2018-04-16T15:48:04.675Z,37.28
2018-04-16T15:50:30.567Z,38.09
2018-04-16T15:52:56.475Z,37.85
2018-04-16T15:55:22.358Z,37.87
2018-04-16T15:57:48.244Z,38.45
2018-04-16T16:00:17.745Z,39.01
2018-04-16T16:02:43.636Z,38.25
2018-04-16T16:05:12.773Z,38.69
2018-04-16T16:07:38.666Z,38.24
2018-04-16T16:10:06.362Z,39.08
2018-04-16T16:12:32.239Z,39.00
2018-04-16T16:15:01.149Z,39.84
2018-04-16T16:17:27.009Z,38.82
2018-04-16T16:20:01.556Z,37.45
2018-04-16T16:22:30.043Z,38.00
2018-04-16T16:24:56.140Z,36.80
2018-04-16T16:27:23.040Z,39.06
2018-04-16T16:29:49.354Z,38.42
2018-04-16T16:32:15.257Z,39.08
2018-04-16T16:34:41.125Z,37.38
2018-04-16T16:37:07.028Z,38.49
2018-04-16T16:39:32.903Z,37.44
2018-04-16T16:42:01.552Z,38.60
2018-04-16T16:44:27.645Z,38.76
2018-04-16T16:46:53.568Z,39.43
2018-04-16T16:49:19.487Z,38.46
2018-04-16T16:51:46.766Z,37.98
2018-04-16T16:54:12.684Z,38.33
2018-04-16T16:56:43.296Z,37.91
2018-04-16T16:59:09.482Z,38.53
2018-04-16T17:01:35.374Z,38.08
2018-04-16T17:04:01.291Z,37.09
2018-04-16T17:06:27.165Z,37.31
2018-04-16T17:08:53.179Z,36.82
2018-04-16T17:11:19.107Z,36.98
2018-04-16T17:13:50.346Z,36.73
2018-04-16T17:16:16.389Z,35.77
2018-04-16T17:18:42.267Z,36.46
2018-04-16T17:21:08.249Z,37.83
2018-04-16T17:23:36.923Z,38.14
2018-04-16T17:26:02.885Z,37.61
2018-04-16T17:28:31.445Z,37.83
2018-04-16T17:30:59.682Z,37.83
2018-04-16T17:33:26.307Z,39.70
2018-04-16T17:35:52.191Z,39.39
2018-04-16T17:38:21.698Z,40.96
2018-04-16T17:40:47.733Z,39.83
2018-04-16T17:43:13.646Z,41.24
2018-04-16T17:45:40.498Z,42.12
2018-04-16T17:48:06.391Z,41.22
2018-04-16T17:50:32.414Z,42.97
2018-04-16T17:52:58.321Z,42.12
2018-04-16T17:55:27.130Z,41.73
2018-04-16T17:57:52.991Z,42.21
2018-04-16T18:00:21.818Z,42.95
2018-04-16T18:02:48.634Z,42.53
2018-04-16T18:05:17.592Z,42.48
2018-04-16T18:07:43.483Z,42.58
2018-04-16T18:10:12.967Z,43.67
2018-04-16T18:12:38.896Z,43.39
2018-04-16T18:15:06.078Z,43.74
2018-04-16T18:17:31.980Z,44.11
2018-04-16T18:20:01.809Z,44.14
2018-04-16T18:22:27.930Z,44.12
2018-04-16T18:24:53.827Z,44.56
2018-04-16T18:27:19.724Z,44.64
2018-04-16T18:29:45.600Z,45.07
2018-04-16T18:32:13.207Z,46.19
2018-04-16T18:34:39.096Z,46.23
2018-04-16T18:37:07.184Z,46.62
2018-04-16T18:39:33.095Z,47.46
2018-04-16T18:42:03.412Z,46.92
2018-04-16T18:44:29.395Z,47.71
2018-04-16T18:46:57.279Z,46.75
2018-04-16T18:49:23.192Z,46.95
2018-04-16T18:51:51.575Z,47.20
2018-04-16T18:54:17.442Z,47.15
2018-04-16T18:56:43.361Z,47.69
2018-04-16T18:59:09.262Z,47.96
2018-04-16T19:01:35.192Z,47.33
2018-04-16T19:04:04.547Z,46.34
2018-04-16T19:06:30.450Z,46.87
2018-04-16T19:08:57.604Z,47.52
2018-04-16T19:11:23.506Z,48.04
2018-04-16T19:13:53.001Z,48.78
2018-04-16T19:16:18.912Z,49.29
2018-04-16T19:18:48.656Z,49.67
2018-04-16T19:21:20.684Z,50.54
2018-04-16T19:23:46.582Z,51.42
2018-04-16T19:26:12.456Z,51.32
2018-04-16T19:28:38.376Z,52.08
2018-04-16T19:31:04.290Z,51.97
2018-04-16T19:33:36.270Z,51.39
2018-04-16T19:36:02.177Z,51.85
2018-04-16T19:38:28.105Z,51.98
2018-04-16T19:40:53.996Z,52.46
2018-04-16T19:43:19.929Z,52.88
2018-04-16T19:45:45.809Z,53.11
2018-04-16T19:48:11.730Z,52.79
2018-04-16T19:50:37.652Z,52.80
2018-04-16T19:53:03.525Z,53.04
2018-04-16T19:55:39.153Z,52.59
2018-04-16T19:58:11.207Z,53.18
2018-04-16T20:00:37.117Z,53.35
2018-04-16T20:03:09.147Z,53.88
2018-04-16T20:05:35.084Z,54.12
2018-04-16T20:08:00.995Z,54.61
2018-04-16T20:10:26.920Z,54.71
2018-04-16T20:12:52.813Z,54.81
2018-04-16T20:15:18.731Z,54.87
2018-04-16T20:17:44.677Z,55.41
2018-04-16T20:20:10.622Z,55.35
2018-04-16T20:22:36.498Z,55.33
2018-04-16T20:25:02.438Z,55.31
2018-04-16T20:27:29.797Z,55.10
2018-04-16T20:29:55.682Z,55.26
2018-04-16T20:32:21.632Z,55.10
2018-04-16T20:34:47.533Z,55.21
2018-04-16T20:37:13.390Z,55.24
2018-04-16T20:39:39.292Z,55.48
2018-04-16T20:42:07.129Z,55.51
2018-04-16T20:44:35.482Z,55.83
2018-04-16T20:47:01.367Z,55.44
2018-04-16T20:49:27.332Z,55.81
2018-04-16T20:51:53.240Z,55.76
2018-04-16T20:54:20.629Z,55.79
2018-04-16T20:56:46.662Z,55.14
2018-04-16T20:59:14.168Z,55.29
2018-04-16T21:01:40.067Z,54.93
2018-04-16T21:04:09.338Z,55.36
2018-04-16T21:06:35.256Z,55.65
2018-04-16T21:09:02.980Z,55.20
2018-04-16T21:11:28.895Z,54.99
2018-04-16T21:13:58.231Z,55.43
2018-04-16T21:16:24.119Z,54.95
2018-04-16T21:18:53.115Z,55.02
2018-04-16T21:21:19.023Z,54.27
2018-04-16T21:23:44.950Z,53.80
2018-04-16T21:26:10.884Z,53.51
2018-04-16T21:28:36.810Z,53.02
2018-04-16T21:31:04.051Z,52.67
2018-04-16T21:33:29.945Z,53.14
2018-04-16T21:35:58.589Z,52.83
2018-04-16T21:38:24.490Z,52.91
2018-04-16T21:40:53.242Z,53.64
2018-04-16T21:43:19.148Z,53.81
2018-04-16T21:45:48.856Z,54.11
2018-04-16T21:48:14.799Z,53.65
2018-04-16T21:50:44.613Z,52.97
2018-04-16T21:53:10.523Z,52.77
2018-04-16T21:55:39.425Z,52.72
2018-04-16T21:58:05.303Z,53.04
2018-04-16T22:00:31.183Z,52.62
2018-04-16T22:02:57.106Z,52.90
2018-04-16T22:05:23.030Z,52.40
2018-04-16T22:07:49.998Z,52.73
2018-04-16T22:10:15.903Z,52.96
2018-04-16T22:12:44.879Z,52.62
2018-04-16T22:15:10.768Z,52.70
2018-04-16T22:17:38.964Z,52.84
2018-04-16T22:20:04.874Z,52.37
2018-04-16T22:22:34.671Z,52.86
2018-04-16T22:25:00.600Z,52.99
2018-04-16T22:27:28.556Z,52.34
2018-04-16T22:29:54.481Z,53.06
2018-04-16T22:32:24.277Z,53.31
2018-04-16T22:34:50.176Z,52.87
2018-04-16T22:37:16.040Z,53.37
2018-04-16T22:39:41.944Z,53.84
2018-04-16T22:42:07.913Z,54.33
2018-04-16T22:44:34.639Z,54.11
2018-04-16T22:47:00.501Z,54.43
2018-04-16T22:49:30.233Z,54.42
2018-04-16T22:51:56.132Z,54.21
2018-04-16T22:54:24.105Z,53.96
2018-04-16T22:56:49.985Z,54.10
2018-04-16T22:59:18.901Z,54.47
2018-04-16T23:01:44.801Z,54.97
2018-04-16T23:04:14.108Z,55.18
2018-04-16T23:06:40.036Z,55.38
2018-04-16T23:09:09.781Z,55.77
2018-04-16T23:11:35.696Z,55.85
2018-04-16T23:14:01.588Z,56.09
2018-04-16T23:16:27.462Z,56.78
2018-04-16T23:18:53.380Z,57.01
2018-04-16T23:21:19.904Z,56.64
2018-04-16T23:23:45.819Z,56.69
2018-04-16T23:26:14.502Z,56.72
2018-04-16T23:28:40.410Z,56.81
2018-04-16T23:31:09.426Z,57.01
2018-04-16T23:33:35.346Z,56.90
2018-04-16T23:36:04.957Z,56.82
2018-04-16T23:38:30.878Z,56.54
2018-04-16T23:40:58.969Z,56.43
2018-04-16T23:43:24.848Z,56.82
2018-04-16T23:45:54.665Z,55.96
2018-04-16T23:48:20.547Z,56.12
2018-04-16T23:50:46.467Z,56.08
2018-04-16T23:53:12.344Z,56.58
2018-04-16T23:55:38.223Z,56.59
2018-04-16T23:58:05.261Z,56.75
